Luling, Texas
Current Conditions -  °F | °C
As of 2:45 PM on Saturday 20 Dec 2014 (Local Time) from KHYI Reporting Station
Overcast Overcast  
Wind Chill: 54°   Ceiling: 2100
Heat Index: 54°   Visibility: 10mi
Dew Point: 45°   Wind: 9mph
Humidity: 72%   Direction: 20°NNE
Pressure: 30.15"   Gusts: NA
Location:  29.68°N, 97.65°W
Report Text: KHYI 202045Z 02008KT 10SM OVC021 12/07 A3015
Loading
Personal Weather Stations






























Interactive Weather Map New forecast layout! Learn more

10-Day Weather Forecast

Advertisements
Track Severe Weather on mobile